Time;durP1;ratioP1;P1;durP2;ratioP2;P2;SDS_P1;SDS_P2;PMS_P1;PMS_P2;Temp;Humidity;BMP_temperature;BMP_pressure;BME280_temperature;BME280_humidity;BME280_pressure;Samples;Min_cycle;Max_cycle;Signal;HPM_P1;HPM_P2
2022/11/12 00:01:28;;;;;;;;;23.75;22.75;;;;;11.62;80.75;102335.25;5076054;28;46532;-60
2022/11/12 00:03:55;;;;;;;;;7.50;6.75;;;;;11.59;80.52;102319.38;5059814;28;45687;-57
2022/11/12 00:06:20;;;;;;;;;18.75;13.00;;;;;11.60;81.01;102326.44;5076839;28;46324;-57
2022/11/12 00:08:48;;;;;;;;;25.75;21.25;;;;;11.58;80.69;102316.72;5075190;27;45363;-61
2022/11/12 00:11:14;;;;;;;;;26.25;23.75;;;;;11.54;81.03;102318.63;5058363;28;45584;-58
2022/11/12 00:13:40;;;;;;;;;27.75;24.25;;;;;11.58;80.96;102333.59;5071312;28;45556;-58
2022/11/12 00:16:05;;;;;;;;;25.25;25.25;;;;;11.55;81.18;102333.69;5050583;28;45498;-58
2022/11/12 00:18:31;;;;;;;;;28.25;24.25;;;;;11.53;81.34;102330.22;5059406;28;45334;-60
2022/11/12 00:20:56;;;;;;;;;24.25;22.50;;;;;11.56;81.16;102338.09;5076465;27;45695;-59
2022/11/12 00:23:21;;;;;;;;;27.50;25.75;;;;;11.57;81.63;102334.50;5077586;28;45253;-57
2022/11/12 00:25:47;;;;;;;;;29.25;25.25;;;;;11.57;81.21;102336.31;5049203;28;47376;-58
2022/11/12 00:28:12;;;;;;;;;24.00;23.00;;;;;11.58;81.62;102335.38;5062698;28;46941;-56
2022/11/12 00:30:39;;;;;;;;;31.50;30.00;;;;;11.56;81.50;102332.78;5076344;28;45304;-59
2022/11/12 00:33:07;;;;;;;;;24.50;24.50;;;;;11.55;81.41;102335.50;5076128;27;45437;-57
2022/11/12 00:35:33;;;;;;;;;28.25;24.75;;;;;11.54;81.53;102331.97;5077181;28;45417;-56
2022/11/12 00:37:59;;;;;;;;;27.00;26.00;;;;;11.53;81.56;102330.22;5057701;28;45480;-59
2022/11/12 00:40:25;;;;;;;;;27.25;23.00;;;;;11.56;81.23;102335.44;5058160;28;45417;-59
2022/11/12 00:42:53;;;;;;;;;25.00;24.25;;;;;11.53;81.50;102333.75;5077039;28;45846;-57
2022/11/12 00:45:19;;;;;;;;;33.50;29.00;;;;;11.54;81.48;102329.28;5075980;28;47326;-58
2022/11/12 00:47:45;;;;;;;;;34.50;31.25;;;;;11.48;81.51;102311.72;5076577;28;45236;-57
2022/11/12 00:50:10;;;;;;;;;18.00;18.00;;;;;11.56;81.33;102330.09;5075952;27;45894;-61
2022/11/12 00:52:35;;;;;;;;;28.00;28.00;;;;;11.52;81.43;102325.81;5075936;28;45220;-58
2022/11/12 00:55:01;;;;;;;;;29.50;24.50;;;;;11.50;81.31;102323.19;5076445;28;46023;-56
2022/11/12 00:57:26;;;;;;;;;32.25;29.00;;;;;11.50;81.11;102309.00;5056353;28;45498;-58
2022/11/12 00:59:51;;;;;;;;;25.75;25.75;;;;;11.50;81.46;102317.00;5075785;28;50684;-58
2022/11/12 01:02:18;;;;;;;;;25.00;23.00;;;;;11.44;81.31;102310.06;5076576;27;45371;-60
2022/11/12 01:04:44;;;;;;;;;27.25;24.00;;;;;11.44;81.62;102325.19;5070980;28;45394;-60
2022/11/12 01:07:09;;;;;;;;;29.00;26.50;;;;;11.45;81.47;102324.25;5053955;28;45422;-59
2022/11/12 01:09:35;;;;;;;;;28.00;26.00;;;;;11.45;81.83;102321.59;5071681;28;45589;-58
2022/11/12 01:12:00;;;;;;;;;26.25;22.25;;;;;11.37;81.97;102302.34;5037877;28;45648;-61
2022/11/12 01:14:25;;;;;;;;;24.00;24.00;;;;;11.40;81.77;102307.56;5059703;28;45374;-60
2022/11/12 01:16:51;;;;;;;;;25.50;25.25;;;;;11.38;81.69;102307.59;5076662;27;45349;-58
2022/11/12 01:19:16;;;;;;;;;24.00;23.75;;;;;11.37;81.40;102300.53;5075252;28;45692;-59
2022/11/12 01:21:43;;;;;;;;;26.75;21.75;;;;;11.41;81.90;102304.84;5076405;27;45566;-60
2022/11/12 01:24:09;;;;;;;;;30.25;24.00;;;;;11.22;81.29;102271.75;5074925;28;45450;-59
2022/11/12 01:26:35;;;;;;;;;31.50;27.75;;;;;11.43;81.70;102310.13;5071097;28;45351;-62
2022/11/12 01:29:00;;;;;;;;;27.00;23.25;;;;;11.40;81.61;102305.75;5074533;28;45265;-56
2022/11/12 01:31:27;;;;;;;;;23.00;21.25;;;;;11.42;82.06;102300.38;5075353;28;45235;-59
2022/11/12 01:33:55;;;;;;;;;22.75;21.25;;;;;11.39;81.69;102298.69;5075425;28;45326;-58
2022/11/12 01:36:22;;;;;;;;;29.00;24.00;;;;;11.37;81.93;102295.22;5057411;28;45331;-60
2022/11/12 01:38:48;;;;;;;;;25.00;22.75;;;;;11.39;81.79;102301.34;5074643;27;45696;-59
2022/11/12 01:41:19;;;;;;;;;21.75;21.75;;;;;11.33;82.12;102295.34;5073139;27;45253;-57
2022/11/12 01:43:45;;;;;;;;;27.50;23.75;;;;;11.38;82.26;102301.41;5075963;28;45437;-58
2022/11/12 01:46:18;;;;;;;;;25.50;22.75;;;;;11.34;81.91;102291.78;5074959;28;45470;-56
2022/11/12 01:48:58;;;;;;;;;24.75;23.50;;;;;11.36;82.41;102295.28;5075043;28;45487;-61
2022/11/12 01:51:39;;;;;;;;;27.25;27.25;;;;;11.34;82.00;102291.78;5076646;28;45186;-60
2022/11/12 01:54:09;;;;;;;;;29.50;22.75;;;;;11.32;82.29;102281.16;5069572;28;46334;-58
2022/11/12 01:56:36;;;;;;;;;21.50;19.50;;;;;11.32;82.41;102277.63;5065959;27;45257;-59
2022/11/12 01:59:10;;;;;;;;;20.00;19.00;;;;;11.34;82.27;102283.78;5074005;28;45506;-58
2022/11/12 02:01:37;;;;;;;;;22.00;19.50;;;;;11.33;82.32;102282.03;5037703;28;45574;-56
2022/11/12 02:04:03;;;;;;;;;23.75;19.00;;;;;11.28;82.42;102266.19;5055381;28;45544;-59
2022/11/12 02:06:30;;;;;;;;;25.00;24.00;;;;;11.34;82.51;102283.78;5058029;28;45869;-58
2022/11/12 02:08:56;;;;;;;;;24.00;22.00;;;;;11.27;82.45;102279.56;5074164;27;45393;-57
2022/11/12 02:11:21;;;;;;;;;23.00;21.00;;;;;11.32;82.49;102289.16;5079023;28;45234;-57
2022/11/12 02:13:56;;;;;;;;;19.75;19.75;;;;;11.30;82.68;102280.34;5078231;27;46148;-59
2022/11/12 02:16:22;;;;;;;;;19.50;19.25;;;;;11.26;82.43;102280.50;5057875;28;45748;-56
2022/11/12 02:18:47;;;;;;;;;21.25;21.25;;;;;11.29;82.04;102283.91;5059697;28;45312;-57
2022/11/12 02:21:12;;;;;;;;;21.75;20.50;;;;;11.32;82.16;102299.78;5078299;27;45224;-60
2022/11/12 02:23:38;;;;;;;;;25.50;23.75;;;;;11.30;82.26;102301.66;5058956;27;46536;-58
2022/11/12 02:26:03;;;;;;;;;23.00;21.75;;;;;11.28;82.15;102298.16;5077615;28;45396;-57
2022/11/12 02:28:31;;;;;;;;;19.25;19.00;;;;;11.29;82.38;102293.72;5078571;27;45312;-58
2022/11/12 02:30:57;;;;;;;;;20.25;18.00;;;;;11.28;82.17;102291.97;5025004;28;45703;-59
2022/11/12 02:33:22;;;;;;;;;19.00;19.00;;;;;11.28;82.00;102286.63;5024089;28;46151;-58
2022/11/12 02:35:47;;;;;;;;;20.50;18.75;;;;;11.25;82.31;102281.41;5074170;27;45439;-58
2022/11/12 02:38:13;;;;;;;;;21.50;21.50;;;;;11.25;82.59;102281.41;5079523;27;45446;-57
2022/11/12 02:40:38;;;;;;;;;21.25;20.25;;;;;11.21;82.43;102268.22;5079284;28;45589;-59
2022/11/12 02:43:04;;;;;;;;;23.75;20.25;;;;;11.18;82.70;102276.28;5078217;28;45354;-59
2022/11/12 02:45:30;;;;;;;;;17.00;17.00;;;;;11.17;82.63;102271.88;5078345;27;45298;-59
2022/11/12 02:47:56;;;;;;;;;21.25;20.50;;;;;11.19;83.02;102278.00;5078779;28;45780;-56
2022/11/12 02:50:22;;;;;;;;;20.25;17.75;;;;;11.16;83.24;102270.13;5060248;28;45765;-57
2022/11/12 02:52:51;;;;;;;;;16.00;16.00;;;;;11.14;83.16;102269.31;5079447;28;45177;-57
2022/11/12 02:55:17;;;;;;;;;21.00;17.75;;;;;11.17;82.87;102266.53;5073828;27;45754;-58
2022/11/12 02:57:42;;;;;;;;;25.25;18.75;;;;;11.18;82.79;102270.94;5077260;28;45441;-61
2022/11/12 03:00:11;;;;;;;;;19.50;19.50;;;;;11.18;82.79;102267.41;5059337;28;45671;-60
2022/11/12 03:02:41;;;;;;;;;18.75;17.25;;;;;11.14;83.21;102269.31;5067671;28;46480;-57
2022/11/12 03:05:10;;;;;;;;;18.50;15.75;;;;;11.15;83.27;102267.53;5057947;28;45340;-58
2022/11/12 03:07:36;;;;;;;;;23.50;20.00;;;;;11.15;82.68;102263.06;5069502;27;45465;-57
2022/11/12 03:10:01;;;;;;;;;25.75;22.00;;;;;11.15;83.00;102263.06;5077975;28;45345;-60
2022/11/12 03:12:29;;;;;;;;;24.25;20.00;;;;;11.15;83.22;102262.19;5077688;27;45225;-59
2022/11/12 03:14:55;;;;;;;;;25.75;17.75;;;;;11.15;82.61;102257.72;5059208;28;45584;-57
2022/11/12 03:17:20;;;;;;;;;23.25;21.75;;;;;11.12;83.16;102259.63;5078380;28;45367;-57
2022/11/12 03:19:45;;;;;;;;;20.25;20.25;;;;;11.12;82.94;102265.81;5077220;27;45339;-57
2022/11/12 03:22:11;;;;;;;;;28.00;22.25;;;;;11.09;83.17;102257.94;5074984;28;45431;-57
2022/11/12 03:24:36;;;;;;;;;20.25;17.75;;;;;11.09;83.01;102249.97;5077162;27;45397;-57
2022/11/12 03:27:01;;;;;;;;;22.00;19.75;;;;;11.10;82.85;102250.81;5058759;28;45453;-57
2022/11/12 03:29:27;;;;;;;;;32.25;20.50;;;;;11.05;83.15;102248.28;5066661;28;45433;-58
2022/11/12 03:31:52;;;;;;;;;21.50;19.00;;;;;11.01;83.01;102238.66;5059591;28;46174;-60
2022/11/12 03:34:17;;;;;;;;;23.00;21.50;;;;;11.05;82.68;102244.75;5076951;27;45335;-57
2022/11/12 03:36:43;;;;;;;;;22.50;19.00;;;;;11.06;82.94;102247.38;5077174;27;45441;-58
2022/11/12 03:39:08;;;;;;;;;23.25;18.75;;;;;11.06;82.73;102247.38;5068997;27;45422;-59
2022/11/12 03:41:34;;;;;;;;;24.75;21.50;;;;;11.04;82.88;102251.88;5060151;28;45493;-60
2022/11/12 03:43:59;;;;;;;;;23.00;19.75;;;;;11.06;82.99;102250.03;5077717;27;45475;-58
2022/11/12 03:46:26;;;;;;;;;29.25;21.50;;;;;11.07;83.14;102248.28;5041085;28;45354;-56
2022/11/12 03:48:52;;;;;;;;;29.50;22.00;;;;;11.06;83.25;102239.38;5061598;28;45532;-58
2022/11/12 03:51:17;;;;;;;;;26.25;23.00;;;;;11.06;82.57;102251.81;5077794;27;45905;-59
2022/11/12 03:53:43;;;;;;;;;21.25;19.00;;;;;11.05;82.56;102248.28;5070162;28;45404;-58
2022/11/12 03:56:08;;;;;;;;;21.25;20.75;;;;;11.01;83.02;102241.31;5063516;28;45247;-57
2022/11/12 03:58:34;;;;;;;;;20.75;20.75;;;;;11.01;82.39;102240.47;5057627;28;45169;-57
2022/11/12 04:00:59;;;;;;;;;22.75;22.00;;;;;11.02;82.37;102251.06;5056848;28;46237;-57
2022/11/12 04:03:25;;;;;;;;;23.75;19.50;;;;;10.99;83.00;102266.25;5066491;27;45309;-57
2022/11/12 04:08:37;;;;;;;;;22.75;20.25;;;;;10.93;83.00;102259.31;5075192;28;45596;-57
2022/11/12 04:11:08;;;;;;;;;25.25;21.50;;;;;10.95;82.79;102262.84;5076465;28;45591;-57
2022/11/12 04:13:35;;;;;;;;;28.75;23.50;;;;;10.95;83.22;102261.97;5076529;27;45254;-57
2022/11/12 04:21:54;;;;;;;;;25.25;21.50;;;;;10.98;82.87;102280.50;5077231;28;45417;-57
2022/11/12 04:27:17;;;;;;;;;21.50;19.50;;;;;10.88;82.78;102267.47;5056745;28;45378;-56
2022/11/12 04:32:30;;;;;;;;;23.00;20.50;;;;;10.87;83.16;102264.84;5075472;28;45915;-56
2022/11/12 04:34:56;;;;;;;;;22.00;19.00;;;;;10.89;83.03;102273.66;5057834;27;47020;-56
2022/11/12 04:37:24;;;;;;;;;25.25;23.00;;;;;10.78;82.70;102254.47;5058871;28;45422;-58
2022/11/12 04:39:50;;;;;;;;;24.00;21.00;;;;;10.87;82.90;102263.06;5076555;27;45497;-57
2022/11/12 04:45:03;;;;;;;;;27.50;24.50;;;;;10.88;82.52;102261.25;5068359;28;45462;-58
2022/11/12 04:47:34;;;;;;;;;23.00;23.00;;;;;10.86;83.41;102265.78;5075897;27;45373;-59
2022/11/12 04:50:01;;;;;;;;;23.25;21.50;;;;;10.79;83.01;102266.84;5057533;28;45268;-59
2022/11/12 04:52:28;;;;;;;;;28.00;23.00;;;;;10.81;82.90;102265.06;5075678;27;45497;-60
2022/11/12 04:54:54;;;;;;;;;25.75;20.75;;;;;10.84;82.81;102256.97;5071250;27;45361;-57
2022/11/12 04:57:19;;;;;;;;;27.50;23.00;;;;;10.83;82.85;102257.88;5076723;27;45277;-57
2022/11/12 04:59:45;;;;;;;;;19.75;16.25;;;;;10.68;82.97;102239.69;5075826;27;45217;-58
2022/11/12 05:02:11;;;;;;;;;18.25;18.25;;;;;10.76;82.80;102257.19;5056687;28;45309;-57
2022/11/12 05:04:37;;;;;;;;;17.50;17.50;;;;;10.77;82.94;102256.25;5056867;28;45475;-58
2022/11/12 05:07:02;;;;;;;;;24.00;19.25;;;;;10.73;83.01;102251.97;5059300;28;45632;-59
2022/11/12 05:09:29;;;;;;;;;19.00;17.75;;;;;10.74;83.43;102248.38;5076866;28;45306;-58
2022/11/12 05:11:54;;;;;;;;;17.75;17.75;;;;;10.73;83.38;102256.41;5075995;27;45857;-58
2022/11/12 05:14:20;;;;;;;;;18.75;17.75;;;;;10.72;83.36;102254.66;5056068;28;45577;-62
2022/11/12 05:16:46;;;;;;;;;18.50;18.25;;;;;10.71;82.90;102263.56;5052816;28;45401;-57
2022/11/12 05:19:12;;;;;;;;;22.00;20.25;;;;;10.66;83.32;102254.84;5076971;28;45323;-57
2022/11/12 05:24:23;;;;;;;;;24.50;19.75;;;;;10.66;82.77;102266.34;5076678;28;45335;-58
2022/11/12 05:26:48;;;;;;;;;20.25;16.25;;;;;10.66;83.43;102266.34;5051821;28;45452;-59
2022/11/12 05:29:14;;;;;;;;;21.25;19.25;;;;;10.62;82.98;102262.91;5075587;27;45629;-62
2022/11/12 05:31:39;;;;;;;;;29.25;22.50;;;;;10.64;83.54;102268.19;5076659;28;45290;-59
2022/11/12 05:34:05;;;;;;;;;28.75;22.00;;;;;10.64;83.22;102262.88;5074551;28;45496;-60
2022/11/12 05:36:31;;;;;;;;;22.75;19.50;;;;;10.66;83.35;102246.84;5075743;28;45464;-62
2022/11/12 05:38:56;;;;;;;;;22.25;21.25;;;;;10.67;82.98;102248.59;5076567;27;45357;-59
2022/11/12 05:41:21;;;;;;;;;22.75;19.25;;;;;10.71;83.36;102258.25;5074570;28;45388;-57
2022/11/12 05:43:47;;;;;;;;;19.75;17.75;;;;;10.70;82.51;102256.50;5076449;28;45489;-59
2022/11/12 05:46:12;;;;;;;;;24.00;21.50;;;;;10.69;82.93;102252.13;5077844;27;45428;-57
2022/11/12 05:48:37;;;;;;;;;26.25;18.25;;;;;10.60;82.98;102248.78;5080106;28;45642;-58
2022/11/12 05:51:03;;;;;;;;;23.75;18.25;;;;;10.64;82.82;102253.09;5075165;27;46102;-56
2022/11/12 05:53:29;;;;;;;;;18.75;17.75;;;;;10.64;83.02;102252.22;5061311;28;45359;-61
2022/11/12 05:56:03;;;;;;;;;21.00;18.75;;;;;10.61;82.45;102249.66;5076093;27;45913;-60
2022/11/12 05:58:30;;;;;;;;;14.50;12.25;;;;;10.60;82.52;102255.91;5062121;28;45441;-60
2022/11/12 06:00:55;;;;;;;;;19.75;19.75;;;;;10.57;82.46;102251.56;5076266;28;45467;-58
2022/11/12 06:03:21;;;;;;;;;32.75;23.25;;;;;10.62;82.88;102265.59;5079656;27;45367;-59
2022/11/12 06:05:46;;;;;;;;;21.25;21.25;;;;;10.62;82.51;102270.91;5075850;28;45424;-64
2022/11/12 06:08:12;;;;;;;;;17.00;17.00;;;;;10.64;81.80;102273.50;5059735;28;45246;-58
2022/11/12 06:10:37;;;;;;;;;14.25;13.25;;;;;10.66;82.24;102270.81;5064342;27;45342;-59
2022/11/12 06:13:03;;;;;;;;;19.50;19.00;;;;;10.60;81.96;102266.56;5079102;28;45260;-65
2022/11/12 06:15:28;;;;;;;;;18.75;17.50;;;;;10.64;81.87;102268.19;5077620;27;45469;-59
2022/11/12 06:17:54;;;;;;;;;23.00;20.50;;;;;10.62;82.05;102270.03;5059031;28;45697;-58
2022/11/12 06:20:20;;;;;;;;;22.50;18.50;;;;;10.62;82.49;102259.38;5078070;28;45311;-60
2022/11/12 06:22:46;;;;;;;;;20.00;20.00;;;;;10.59;82.02;102265.69;5076958;27;45509;-59
2022/11/12 06:25:12;;;;;;;;;28.25;26.00;;;;;10.62;82.08;102262.91;5078645;27;45418;-62
2022/11/12 06:27:38;;;;;;;;;26.50;23.00;;;;;10.66;81.86;102268.16;5061220;28;45319;-57
2022/11/12 06:30:05;;;;;;;;;28.50;22.25;;;;;10.64;81.91;102274.38;5054020;28;46900;-58
2022/11/12 06:32:31;;;;;;;;;17.25;17.25;;;;;10.63;81.68;102266.44;5077698;27;45399;-59
2022/11/12 06:34:56;;;;;;;;;22.00;17.75;;;;;10.60;81.83;102267.41;5077908;28;45328;-56
2022/11/12 06:37:21;;;;;;;;;16.50;16.00;;;;;10.61;82.06;102270.94;5074693;28;45402;-57
2022/11/12 06:39:47;;;;;;;;;18.00;18.00;;;;;10.61;82.26;102274.47;5040369;28;45332;-57
2022/11/12 06:42:13;;;;;;;;;17.25;17.25;;;;;10.55;81.65;102260.50;5061135;28;45198;-60
2022/11/12 06:44:39;;;;;;;;;19.50;19.50;;;;;10.58;81.67;102268.38;5062576;28;45233;-59
2022/11/12 06:47:04;;;;;;;;;20.67;16.00;;;;;10.60;81.95;102275.41;5059059;28;45622;-61
2022/11/12 06:49:30;;;;;;;;;18.50;17.25;;;;;10.58;82.00;102279.03;5074512;27;46029;-60
2022/11/12 06:51:56;;;;;;;;;21.00;19.25;;;;;10.55;82.21;102266.69;5079376;27;45232;-58
2022/11/12 06:54:21;;;;;;;;;17.25;16.00;;;;;10.55;81.80;102274.69;5066709;27;45441;-60
2022/11/12 06:56:46;;;;;;;;;15.25;14.75;;;;;10.55;82.30;102285.31;5071005;27;45311;-59
2022/11/12 06:59:12;;;;;;;;;18.75;16.75;;;;;10.58;82.15;102282.56;5077864;27;45390;-58
2022/11/12 07:01:38;;;;;;;;;17.75;17.00;;;;;10.59;81.70;102289.63;5078748;27;45485;-60
2022/11/12 07:04:04;;;;;;;;;25.25;16.25;;;;;10.61;81.47;102290.44;5069661;27;45508;-57
2022/11/12 07:06:29;;;;;;;;;19.25;18.00;;;;;10.60;81.19;102291.38;5058707;28;45565;-61
2022/11/12 07:08:55;;;;;;;;;26.25;22.00;;;;;10.58;81.43;102282.56;5068683;28;45436;-59
2022/11/12 07:11:20;;;;;;;;;18.75;17.00;;;;;10.62;81.74;102286.88;5074761;28;45468;-59
2022/11/12 07:13:47;;;;;;;;;16.00;13.50;;;;;10.60;82.05;102272.75;5061373;28;45479;-58
2022/11/12 07:16:17;;;;;;;;;20.75;17.50;;;;;10.63;82.00;102277.97;5065644;28;45232;-60
2022/11/12 07:18:43;;;;;;;;;18.50;17.00;;;;;10.67;81.52;102283.19;5043739;28;45423;-59
2022/11/12 07:21:12;;;;;;;;;21.75;17.00;;;;;10.67;80.79;102280.53;5061965;28;45524;-59
2022/11/12 07:23:38;;;;;;;;;21.00;18.75;;;;;10.67;80.90;102288.50;5061304;28;45256;-60
2022/11/12 07:26:12;;;;;;;;;28.00;26.50;;;;;10.68;80.36;102288.50;5062070;28;45633;-58
2022/11/12 07:28:38;;;;;;;;;23.00;22.00;;;;;10.57;80.17;102278.16;5069985;27;46365;-61
2022/11/12 07:31:07;;;;;;;;;24.75;22.00;;;;;10.56;79.63;102284.41;5072815;28;45907;-58
2022/11/12 07:33:33;;;;;;;;;30.25;25.50;;;;;10.61;80.35;102305.53;5074939;27;45726;-58
2022/11/12 07:36:13;;;;;;;;;28.75;23.00;;;;;10.57;79.47;102296.78;5080193;27;45579;-58
2022/11/12 07:38:40;;;;;;;;;25.50;23.50;;;;;10.59;79.92;102302.94;5063847;28;45674;-60
2022/11/12 07:41:07;;;;;;;;;24.25;19.75;;;;;10.61;80.24;102311.72;5073632;28;45471;-59
2022/11/12 07:43:34;;;;;;;;;23.25;21.75;;;;;10.62;79.46;102310.81;5075879;28;45358;-59
2022/11/12 07:46:02;;;;;;;;;24.00;22.00;;;;;10.63;79.72;102309.91;5078171;27;45331;-60
2022/11/12 07:48:29;;;;;;;;;27.75;24.50;;;;;10.59;79.36;102296.72;5067803;28;45528;-61
2022/11/12 07:51:05;;;;;;;;;28.00;25.00;;;;;10.67;78.96;102309.78;5069247;28;45446;-59
2022/11/12 07:53:30;;;;;;;;;27.75;21.50;;;;;10.71;79.70;102307.03;5070247;27;45228;-60
2022/11/12 07:56:01;;;;;;;;;22.25;22.00;;;;;10.75;80.18;102307.78;5074856;27;45592;-59
2022/11/12 07:58:29;;;;;;;;;20.50;18.00;;;;;10.77;80.36;102300.63;5076959;27;45503;-61
2022/11/12 08:00:55;;;;;;;;;26.25;24.25;;;;;10.81;80.05;102310.28;5070246;27;45242;-57
2022/11/12 08:03:20;;;;;;;;;30.25;29.75;;;;;10.80;79.63;102316.50;5052437;28;45507;-57
2022/11/12 08:05:49;;;;;;;;;24.50;23.50;;;;;10.89;79.47;102318.91;5084621;27;45562;-60
2022/11/12 08:08:15;;;;;;;;;23.75;17.00;;;;;10.95;79.75;102325.84;5087764;27;45470;-56
2022/11/12 08:10:41;;;;;;;;;16.50;15.00;;;;;10.99;79.82;102330.16;5077261;27;45728;-56
2022/11/12 08:13:06;;;;;;;;;19.50;17.25;;;;;11.03;79.75;102335.34;5076049;28;45425;-61
2022/11/12 08:15:32;;;;;;;;;28.25;22.00;;;;;11.08;80.32;102324.56;5077753;27;45629;-58
2022/11/12 08:17:57;;;;;;;;;22.00;20.50;;;;;11.10;79.33;102326.25;5080945;27;46358;-59
2022/11/12 08:20:23;;;;;;;;;22.00;21.00;;;;;11.16;79.34;102335.81;5058466;28;45371;-59
2022/11/12 08:22:48;;;;;;;;;27.00;21.00;;;;;11.22;79.86;102338.31;5083964;27;45341;-63
2022/11/12 08:25:15;;;;;;;;;29.25;18.50;;;;;11.28;79.69;102342.56;5077854;27;45342;-60
2022/11/12 08:27:40;;;;;;;;;20.50;20.25;;;;;11.31;79.31;102335.34;5078343;27;45388;-59
2022/11/12 08:30:06;;;;;;;;;21.00;17.75;;;;;11.33;79.70;102337.97;5069633;28;45407;-62
2022/11/12 08:32:32;;;;;;;;;17.75;16.50;;;;;11.37;78.73;102336.97;5093895;27;45434;-58
2022/11/12 08:34:57;;;;;;;;;21.00;20.25;;;;;11.43;78.58;102342.97;5064619;27;45332;-60
2022/11/12 08:37:23;;;;;;;;;20.75;20.25;;;;;11.50;78.56;102340.97;5076918;28;46580;-61
2022/11/12 08:39:48;;;;;;;;;24.50;20.75;;;;;11.52;78.58;102348.00;5059285;28;45465;-60
2022/11/12 08:42:13;;;;;;;;;30.00;27.75;;;;;11.55;78.74;102333.69;5077543;27;45383;-57
2022/11/12 08:44:39;;;;;;;;;24.50;24.00;;;;;11.64;78.59;102344.06;5076308;28;45346;-61
2022/11/12 08:47:04;;;;;;;;;30.25;21.25;;;;;11.66;78.16;102352.88;5068513;28;46095;-58
2022/11/12 08:49:30;;;;;;;;;20.75;18.00;;;;;11.69;78.18;102350.09;5076794;27;45361;-60
2022/11/12 08:51:56;;;;;;;;;29.25;23.00;;;;;11.72;77.93;102342.03;5058775;28;45397;-60
2022/11/12 08:54:24;;;;;;;;;18.25;15.25;;;;;11.80;77.45;102355.13;5077189;28;45331;-55
2022/11/12 08:56:50;;;;;;;;;27.25;23.75;;;;;11.84;77.53;102356.75;5076191;28;45340;-57
2022/11/12 08:59:15;;;;;;;;;26.00;23.75;;;;;11.83;77.33;102357.69;5075059;27;45824;-56
2022/11/12 09:01:41;;;;;;;;;26.75;20.75;;;;;11.88;77.43;102346.88;5060992;28;46162;-61
2022/11/12 09:04:07;;;;;;;;;22.50;22.50;;;;;11.92;76.98;102337.84;5063593;28;45205;-63
2022/11/12 09:06:32;;;;;;;;;26.00;24.75;;;;;11.94;77.06;102330.66;5063345;27;46046;-59
2022/11/12 09:08:57;;;;;;;;;25.75;23.75;;;;;11.96;77.42;102334.16;5077244;27;45486;-57
2022/11/12 09:11:23;;;;;;;;;27.00;26.25;;;;;12.00;76.60;102335.81;5075539;27;45389;-60
2022/11/12 09:13:51;;;;;;;;;20.25;17.25;;;;;12.02;76.70;102333.97;5077030;27;45516;-65
2022/11/12 09:16:16;;;;;;;;;27.00;23.25;;;;;12.01;76.53;102337.56;5056957;28;45332;-65
2022/11/12 09:18:42;;;;;;;;;29.25;26.75;;;;;12.01;76.03;102333.09;5054543;28;45360;-62
2022/11/12 09:21:11;;;;;;;;;26.25;23.25;;;;;12.02;75.91;102334.81;5056359;28;45363;-60
2022/11/12 09:23:37;;;;;;;;;29.50;24.25;;;;;12.04;76.21;102343.63;5057729;28;45547;-59
2022/11/12 09:26:03;;;;;;;;;29.75;24.25;;;;;12.03;76.31;102338.38;5057152;28;45256;-60
2022/11/12 09:28:29;;;;;;;;;29.25;25.75;;;;;12.07;76.06;102332.00;5056575;28;45335;-59
2022/11/12 09:30:55;;;;;;;;;32.75;26.75;;;;;12.07;76.14;102330.19;5056832;28;45315;-57
2022/11/12 09:33:23;;;;;;;;;33.00;28.75;;;;;12.16;75.87;102328.16;5038794;28;45719;-60
2022/11/12 09:35:50;;;;;;;;;31.25;29.25;;;;;12.20;75.74;102325.31;5068790;27;45554;-60
2022/11/12 09:38:16;;;;;;;;;34.50;27.50;;;;;12.26;75.27;102333.09;5041564;28;45425;-62
2022/11/12 09:40:54;;;;;;;;;31.25;27.00;;;;;12.31;75.10;102325.78;5076877;28;45361;-58
2022/11/12 09:43:33;;;;;;;;;23.25;21.50;;;;;12.30;75.20;102318.72;5077317;27;45317;-57
2022/11/12 09:46:07;;;;;;;;;21.00;20.00;;;;;12.47;75.00;102327.91;5059445;28;45280;-66
2022/11/12 09:48:43;;;;;;;;;22.00;21.25;;;;;12.56;74.64;102332.91;5076196;28;45379;-61
2022/11/12 09:51:31;;;;;;;;;26.25;23.25;;;;;12.64;74.26;102322.84;5074666;28;45220;-64
2022/11/12 09:54:17;;;;;;;;;26.75;25.50;;;;;12.70;73.73;102334.16;5075068;28;45324;-57
2022/11/12 09:56:43;;;;;;;;;26.75;26.75;;;;;12.79;74.05;102330.28;5073875;28;45995;-58
2022/11/12 09:59:12;;;;;;;;;32.25;26.00;;;;;12.89;73.52;102334.34;5075123;27;45424;-59
2022/11/12 10:01:47;;;;;;;;;34.00;28.00;;;;;12.95;73.25;102328.75;5076056;28;45350;-58
2022/11/12 10:04:44;;;;;;;;;30.75;25.50;;;;;13.06;72.89;102339.03;5075354;28;45460;-59
2022/11/12 10:07:47;;;;;;;;;28.50;27.50;;;;;13.14;72.68;102346.72;5074812;28;45483;-59
2022/11/12 10:10:15;;;;;;;;;28.00;25.50;;;;;13.24;72.19;102346.34;5048572;28;45524;-63
2022/11/12 10:13:01;;;;;;;;;33.25;26.75;;;;;13.29;72.22;102348.88;5085477;27;45409;-59
2022/11/12 10:18:40;;;;;;;;;30.50;28.00;;;;;13.35;72.07;102348.59;5056317;28;45248;-64
2022/11/12 10:21:39;;;;;;;;;25.75;21.75;;;;;13.39;72.05;102342.19;5058479;28;45779;-61
2022/11/12 10:24:09;;;;;;;;;31.75;27.75;;;;;13.46;71.90;102343.72;5075733;28;45371;-66
2022/11/12 10:26:37;;;;;;;;;33.75;26.00;;;;;13.54;71.20;102335.34;5058797;28;45256;-60
2022/11/12 10:29:26;;;;;;;;;35.50;31.50;;;;;13.60;70.93;102321.75;5074512;28;45638;-71
2022/11/12 10:31:51;;;;;;;;;36.00;30.75;;;;;13.75;71.27;102329.13;5077581;27;45488;-61
2022/11/12 10:34:22;;;;;;;;;36.00;32.25;;;;;13.84;69.95;102325.22;5079426;28;45404;-64
2022/11/12 10:36:58;;;;;;;;;35.00;29.00;;;;;13.88;70.51;102321.47;5078857;27;45438;-64
2022/11/12 10:39:33;;;;;;;;;40.25;35.25;;;;;14.04;69.81;102324.34;5079684;27;45510;-64
2022/11/12 10:42:10;;;;;;;;;43.00;38.25;;;;;14.12;69.56;102314.22;5079170;28;45485;-63
2022/11/12 10:44:37;;;;;;;;;32.00;31.00;;;;;14.20;69.52;102311.22;5078448;27;45405;-61
2022/11/12 10:47:40;;;;;;;;;25.50;24.75;;;;;14.23;69.76;102305.72;5071545;28;45495;-65
2022/11/12 10:50:27;;;;;;;;;34.75;30.00;;;;;14.25;69.02;102304.69;5076877;28;47530;-62
2022/11/12 10:52:59;;;;;;;;;28.00;23.67;;;;;14.35;69.03;102311.41;5075274;27;45536;-72
2022/11/12 10:55:29;;;;;;;;;32.50;30.25;;;;;14.42;69.43;102311.97;5060951;28;45398;-64
2022/11/12 10:58:08;;;;;;;;;44.00;34.00;;;;;14.43;68.71;102311.03;5075662;27;45263;-70
2022/11/12 11:00:35;;;;;;;;;34.33;32.67;;;;;14.44;68.27;102316.34;5099267;27;45446;-65
2022/11/12 11:03:14;;;;;;;;;40.33;34.00;;;;;14.53;68.21;102293.66;5067802;28;45548;-64
2022/11/12 11:06:10;;;;;;;;;40.75;34.00;;;;;14.75;68.18;102294.41;5078916;27;45290;-74
2022/11/12 11:08:47;;;;;;;;;40.00;34.67;;;;;14.86;67.49;102285.03;5084101;27;45233;-64
2022/11/12 11:11:13;;;;;;;;;36.67;33.00;;;;;14.98;67.44;102273.72;5099898;27;46121;-70
2022/11/12 11:13:38;;;;;;;;;35.33;33.00;;;;;15.06;66.25;102279.56;5076133;27;45532;-62
2022/11/12 11:16:07;;;;;;;;;39.33;34.00;;;;;15.12;66.13;102279.28;5073895;27;45377;-62
2022/11/12 11:18:40;;;;;;;;;35.50;34.00;;;;;15.16;65.90;102271.97;5078322;28;45426;-62
2022/11/12 11:21:24;;;;;;;;;40.00;36.50;;;;;15.14;66.47;102266.69;5065668;27;45405;-59
2022/11/12 11:24:01;;;;;;;;;36.67;33.67;;;;;15.22;66.79;102266.28;5072663;28;45416;-64
2022/11/12 11:26:41;;;;;;;;;20.67;13.33;;;;;15.34;66.16;102261.19;5085338;27;45282;-60
2022/11/12 11:29:18;;;;;;;;;43.75;37.25;;;;;15.44;65.55;102255.38;5074355;27;45453;-70
2022/11/12 11:31:50;;;;;;;;;39.33;33.67;;;;;15.50;66.11;102255.09;5069723;27;45342;-62
2022/11/12 11:34:34;;;;;;;;;43.33;36.67;;;;;15.63;65.21;102248.19;5086025;27;45483;-59
2022/11/12 11:37:18;;;;;;;;;41.00;35.33;;;;;15.63;65.23;102237.47;5058836;28;45288;-60